Time;durP1;ratioP1;P1;durP2;ratioP2;P2;SDS_P1;SDS_P2;PMS_P1;PMS_P2;Temp;Humidity;BMP_temperature;BMP_pressure;BME280_temperature;BME280_humidity;BME280_pressure;Samples;Min_cycle;Max_cycle;Signal;HPM_P1;HPM_P2
2023/08/31 00:00:17;;;;;;;13.50;6.35;;;;;;;13.15;100.00;100174.16;6127855;23;20026;-79
2023/08/31 00:02:44;;;;;;;14.43;6.40;;;;;;;13.28;100.00;100187.47;6129442;23;20343;-80
2023/08/31 00:05:11;;;;;;;8.45;5.90;;;;;;;13.21;100.00;100176.09;6128166;23;20024;-78
2023/08/31 00:07:39;;;;;;;13.13;6.60;;;;;;;13.20;100.00;100187.59;6126700;23;20358;-78
2023/08/31 00:10:09;;;;;;;13.30;6.28;;;;;;;13.14;100.00;100190.94;6126062;23;20596;-78
2023/08/31 00:12:36;;;;;;;12.00;7.07;;;;;;;13.09;100.00;100185.41;6125389;23;20045;-77
2023/08/31 00:15:04;;;;;;;14.35;7.45;;;;;;;13.01;100.00;100182.88;6124760;23;20097;-78
2023/08/31 00:17:31;;;;;;;10.52;6.50;;;;;;;12.95;100.00;100187.84;6124866;23;20022;-79
2023/08/31 00:19:57;;;;;;;15.55;6.85;;;;;;;12.93;100.00;100186.41;6124900;23;20408;-78
2023/08/31 00:22:24;;;;;;;16.70;6.90;;;;;;;12.89;100.00;100179.88;6124382;23;20054;-78
2023/08/31 00:24:52;;;;;;;16.02;6.47;;;;;;;12.86;100.00;100182.88;6124479;23;20550;-79
2023/08/31 00:27:21;;;;;;;11.32;6.70;;;;;;;12.84;100.00;100195.38;6130053;23;20080;-80
2023/08/31 00:29:50;;;;;;;10.85;6.95;;;;;;;12.87;100.00;100185.31;6131046;23;20361;-78
2023/08/31 00:32:17;;;;;;;9.77;6.97;;;;;;;12.84;100.00;100185.69;6128425;23;20022;-79
2023/08/31 00:34:44;;;;;;;11.30;6.22;;;;;;;12.82;100.00;100184.22;6129372;23;20411;-79
2023/08/31 00:37:10;;;;;;;13.85;6.55;;;;;;;12.77;100.00;100182.16;6128519;23;20028;-79
2023/08/31 00:39:37;;;;;;;9.80;6.00;;;;;;;12.70;100.00;100185.69;6125286;23;20055;-79
2023/08/31 00:42:05;;;;;;;9.73;5.85;;;;;;;12.68;100.00;100178.00;6126295;23;20026;-80
2023/08/31 00:44:32;;;;;;;10.50;5.97;;;;;;;12.68;100.00;100193.75;6126212;23;20125;-78
2023/08/31 00:46:59;;;;;;;11.02;7.57;;;;;;;12.62;100.00;100182.16;6127176;23;20050;-77
2023/08/31 00:49:25;;;;;;;11.52;6.45;;;;;;;12.61;100.00;100188.41;6126347;23;20022;-77
2023/08/31 00:51:57;;;;;;;8.93;6.03;;;;;;;12.66;100.00;100189.69;6125459;23;20113;-77
2023/08/31 00:54:28;;;;;;;10.50;6.50;;;;;;;12.69;100.00;100186.69;6125295;23;20022;-78
2023/08/31 00:56:57;;;;;;;11.48;6.20;;;;;;;12.65;100.00;100191.50;6124634;23;20140;-76
2023/08/31 00:59:26;;;;;;;13.38;6.50;;;;;;;12.59;100.00;100189.56;6125501;23;20029;-78
2023/08/31 01:02:05;;;;;;;10.43;7.45;;;;;;;12.54;100.00;100194.53;6127194;23;20037;-78
2023/08/31 01:04:39;;;;;;;12.15;6.53;;;;;;;12.46;100.00;100197.25;6134177;23;20026;-79
2023/08/31 01:07:18;;;;;;;11.52;6.70;;;;;;;12.37;100.00;100195.69;6127125;23;20053;-78
2023/08/31 01:10:01;;;;;;;10.60;6.43;;;;;;;12.35;100.00;100201.09;6130383;23;20096;-79
2023/08/31 01:12:36;;;;;;;9.70;6.47;;;;;;;12.29;100.00;100200.00;6134206;23;20196;-80
2023/08/31 01:15:07;;;;;;;9.98;6.80;;;;;;;12.22;100.00;100203.53;6136408;23;20030;-80
2023/08/31 01:17:43;;;;;;;16.50;7.63;;;;;;;12.19;100.00;100199.47;6136503;23;20026;-81
2023/08/31 01:20:12;;;;;;;13.60;7.97;;;;;;;12.14;100.00;100206.22;6134112;23;20046;-80
2023/08/31 01:22:43;;;;;;;10.90;7.30;;;;;;;12.05;100.00;100205.47;6132625;23;20025;-79
2023/08/31 01:25:11;;;;;;;16.52;8.25;;;;;;;12.02;100.00;100208.44;6131386;23;20018;-80
2023/08/31 01:27:39;;;;;;;13.25;8.20;;;;;;;11.98;100.00;100208.97;6130490;23;20026;-77
2023/08/31 01:30:07;;;;;;;19.83;8.18;;;;;;;11.95;100.00;100202.25;6133173;23;20032;-81
2023/08/31 01:32:35;;;;;;;13.43;7.68;;;;;;;11.89;100.00;100202.97;6134712;23;20026;-77
2023/08/31 01:35:05;;;;;;;12.55;7.88;;;;;;;11.85;100.00;100204.28;6135131;23;20283;-79
2023/08/31 01:37:42;;;;;;;17.27;9.48;;;;;;;11.83;100.00;100214.13;6133911;23;20018;-79
2023/08/31 01:40:17;;;;;;;12.90;8.32;;;;;;;11.77;100.00;100220.91;6134810;23;20025;-80
2023/08/31 01:42:48;;;;;;;14.23;8.82;;;;;;;11.72;100.00;100222.41;6133897;23;20026;-79
2023/08/31 01:45:19;;;;;;;12.95;8.45;;;;;;;11.70;100.00;100219.13;6135163;23;20033;-80
2023/08/31 01:47:47;;;;;;;19.40;8.97;;;;;;;11.70;100.00;100224.38;6134763;23;20030;-79
2023/08/31 01:50:13;;;;;;;16.83;10.48;;;;;;;11.65;100.00;100232.75;6133947;23;20257;-78
2023/08/31 01:52:40;;;;;;;15.90;9.02;;;;;;;11.62;100.00;100239.16;6125769;23;20026;-77
2023/08/31 01:55:07;;;;;;;19.40;8.90;;;;;;;11.66;100.00;100230.94;6125523;23;20069;-79
2023/08/31 01:57:35;;;;;;;13.50;8.30;;;;;;;11.65;100.00;100232.75;6126990;23;20037;-79
2023/08/31 02:00:03;;;;;;;15.32;8.43;;;;;;;11.66;100.00;100228.31;6129949;23;20422;-79
2023/08/31 02:02:29;;;;;;;13.60;7.97;;;;;;;11.71;100.00;100224.19;6128147;23;20049;-78
2023/08/31 02:04:56;;;;;;;16.15;7.95;;;;;;;11.68;100.00;100224.53;6130224;23;20022;-78
2023/08/31 02:07:22;;;;;;;14.65;7.57;;;;;;;11.70;100.00;100224.38;6123777;23;20109;-78
2023/08/31 02:09:49;;;;;;;12.65;7.57;;;;;;;11.74;100.00;100236.16;6124202;23;20105;-77
2023/08/31 02:12:16;;;;;;;15.50;7.93;;;;;;;11.78;100.00;100224.34;6123786;23;20032;-76
2023/08/31 02:14:44;;;;;;;12.93;7.28;;;;;;;11.76;100.00;100218.44;6123203;23;20097;-77
2023/08/31 02:17:10;;;;;;;10.45;7.43;;;;;;;11.78;100.00;100226.97;6123279;23;20054;-77
2023/08/31 02:19:37;;;;;;;11.52;6.90;;;;;;;11.75;100.00;100227.28;6123456;23;20033;-77
2023/08/31 02:22:04;;;;;;;12.55;7.22;;;;;;;11.76;100.00;100228.94;6123773;23;20134;-76
2023/08/31 02:24:30;;;;;;;12.07;7.03;;;;;;;11.72;100.00;100223.22;6125280;23;20353;-76
2023/08/31 02:26:57;;;;;;;9.93;6.25;;;;;;;11.66;100.00;100223.09;6124305;23;20200;-76
2023/08/31 02:29:24;;;;;;;11.82;7.18;;;;;;;11.66;100.00;100234.38;6124394;23;20100;-78
2023/08/31 02:31:51;;;;;;;8.82;6.35;;;;;;;11.67;100.00;100225.53;6123754;23;20053;-78
2023/08/31 02:34:18;;;;;;;8.77;5.78;;;;;;;11.66;100.00;100223.91;6124392;23;20207;-77
2023/08/31 02:36:45;;;;;;;12.02;6.97;;;;;;;11.64;100.00;100221.44;6128747;23;20029;-79
2023/08/31 02:39:12;;;;;;;11.27;6.60;;;;;;;11.63;100.00;100219.81;6129341;23;20359;-80
2023/08/31 02:41:39;;;;;;;8.13;5.95;;;;;;;11.58;100.00;100231.81;6128129;23;20363;-79
2023/08/31 02:44:06;;;;;;;9.52;6.53;;;;;;;11.53;100.00;100229.69;6127170;23;20050;-78
2023/08/31 02:46:33;;;;;;;8.45;6.50;;;;;;;11.52;100.00;100232.50;6126182;23;20026;-78
2023/08/31 02:49:01;;;;;;;9.63;5.70;;;;;;;11.50;100.00;100237.91;6128010;23;20036;-80
2023/08/31 02:51:27;;;;;;;9.43;6.07;;;;;;;11.49;100.00;100243.31;6127810;23;20411;-77
2023/08/31 02:53:54;;;;;;;10.65;6.63;;;;;;;11.50;100.00;100237.91;6126103;23;20102;-78
2023/08/31 02:56:20;;;;;;;10.70;6.47;;;;;;;11.50;100.00;100240.53;6125739;23;20025;-79
2023/08/31 02:58:47;;;;;;;13.27;7.00;;;;;;;11.49;100.00;100233.66;6126064;23;20101;-78
2023/08/31 03:01:14;;;;;;;12.32;6.90;;;;;;;11.47;100.00;100235.63;6126682;23;20041;-78
2023/08/31 03:03:42;;;;;;;9.52;6.78;;;;;;;11.52;100.00;100240.34;6128398;23;20104;-78
2023/08/31 03:06:10;;;;;;;10.35;6.47;;;;;;;11.52;100.00;100242.97;6130022;23;20018;-78
2023/08/31 03:08:38;;;;;;;14.18;6.78;;;;;;;11.53;100.00;100239.34;6130298;23;20408;-80
2023/08/31 03:11:05;;;;;;;11.07;6.72;;;;;;;11.53;100.00;100241.97;6129655;23;20026;-80
2023/08/31 03:13:32;;;;;;;10.00;6.60;;;;;;;11.53;100.00;100240.19;6129218;23;20053;-80
2023/08/31 03:16:00;;;;;;;9.65;6.90;;;;;;;11.57;100.00;100244.09;6130003;23;20029;-76
2023/08/31 03:18:28;;;;;;;11.55;6.13;;;;;;;11.66;100.00;100250.09;6129800;23;20029;-80
2023/08/31 03:20:55;;;;;;;10.27;7.15;;;;;;;11.78;100.00;100247.94;6130959;23;20021;-79
2023/08/31 03:23:23;;;;;;;14.05;6.80;;;;;;;11.88;100.00;100243.28;6127562;23;20037;-80
2023/08/31 03:25:50;;;;;;;12.85;6.50;;;;;;;11.98;100.00;100251.75;6127454;23;20097;-79
2023/08/31 03:28:16;;;;;;;11.98;7.05;;;;;;;12.08;100.00;100251.50;6127098;23;20064;-79
2023/08/31 03:30:44;;;;;;;9.68;6.65;;;;;;;12.16;100.00;100241.78;6127728;23;20098;-79
2023/08/31 03:33:12;;;;;;;12.38;7.25;;;;;;;12.23;100.00;100237.47;6128640;23;20144;-78
2023/08/31 03:35:38;;;;;;;13.43;6.82;;;;;;;12.35;100.00;100243.09;6128964;23;20060;-77
2023/08/31 03:38:05;;;;;;;12.48;6.40;;;;;;;12.41;100.00;100234.50;6130701;23;20026;-78
2023/08/31 03:40:33;;;;;;;11.27;6.60;;;;;;;12.51;100.00;100237.72;6130138;23;20060;-76
2023/08/31 03:43:00;;;;;;;8.20;6.18;;;;;;;12.51;100.00;100240.34;6130970;23;20026;-79
2023/08/31 03:45:28;;;;;;;11.57;7.43;;;;;;;12.56;100.00;100238.00;6129820;23;20049;-79
2023/08/31 03:47:58;;;;;;;12.60;6.78;;;;;;;12.60;100.00;100235.81;6131026;23;20078;-80
2023/08/31 03:50:27;;;;;;;8.90;6.40;;;;;;;12.62;100.00;100231.22;6131541;23;20069;-79
2023/08/31 03:52:57;;;;;;;12.13;7.03;;;;;;;12.60;100.00;100235.81;6132766;23;20036;-80
2023/08/31 03:55:27;;;;;;;12.52;6.78;;;;;;;12.55;100.00;100232.91;6132901;23;20034;-77
2023/08/31 03:58:08;;;;;;;12.27;7.05;;;;;;;12.51;100.00;100229.03;6133482;23;20041;-80
2023/08/31 04:00:48;;;;;;;9.50;6.78;;;;;;;12.45;100.00;100235.78;6131693;23;20691;-77
2023/08/31 04:03:15;;;;;;;11.05;6.90;;;;;;;12.34;100.00;100227.53;6133896;23;20018;-79
2023/08/31 04:05:42;;;;;;;8.48;7.07;;;;;;;12.18;100.00;100226.69;6133903;23;20407;-79
2023/08/31 04:08:11;;;;;;;13.05;7.35;;;;;;;12.21;100.00;100241.25;6134477;23;20139;-79
2023/08/31 04:10:38;;;;;;;14.52;7.38;;;;;;;12.05;100.00;100241.38;6135363;23;20026;-79
2023/08/31 04:16:25;;;;;;;11.93;7.97;;;;;;;11.91;100.00;100233.25;6134772;23;20058;-79
2023/08/31 04:18:55;;;;;;;11.23;8.02;;;;;;;11.85;100.00;100233.94;6100046;23;20018;-82
2023/08/31 04:21:51;;;;;;;14.57;7.72;;;;;;;11.92;100.00;100247.19;6150836;23;20014;-81
2023/08/31 04:24:50;;;;;;;10.43;8.52;;;;;;;11.80;100.00;100235.50;6149161;23;20129;-80
2023/08/31 04:27:39;;;;;;;13.23;9.18;;;;;;;11.88;100.00;100259.00;6144836;23;20057;-78
2023/08/31 04:30:26;;;;;;;;;;;;;;;;;;;;;
2023/08/31 04:33:18;;;;;;;11.93;8.10;;;;;;;11.77;100.00;100267.28;6129789;23;20097;-79
2023/08/31 04:36:00;;;;;;;12.18;8.82;;;;;;;11.59;100.00;100254.41;6130160;23;20403;-79
2023/08/31 04:39:06;;;;;;;9.65;8.18;;;;;;;11.68;100.00;100269.09;6130936;23;20056;-80
2023/08/31 04:42:23;;;;;;;;;;;;;;;;;;;;;
2023/08/31 04:45:26;;;;;;;;;;;;;;;;;;;;;
2023/08/31 04:48:25;;;;;;;11.45;8.90;;;;;;;11.51;100.00;100267.53;6127391;23;20109;-80
2023/08/31 04:54:42;;;;;;;15.23;8.90;;;;;;;11.68;100.00;100289.25;6124407;23;20021;-79
2023/08/31 05:00:50;;;;;;;14.00;8.65;;;;;;;11.57;100.00;100267.69;6116105;23;20026;-79
2023/08/31 05:07:12;;;;;;;15.48;8.95;;;;;;;11.52;100.00;100275.22;6127863;23;20116;-81
2023/08/31 05:16:51;;;;;;;14.18;9.75;;;;;;;11.75;100.00;100313.78;6132213;23;20403;-80
2023/08/31 05:19:45;;;;;;;14.10;9.02;;;;;;;11.78;100.00;100316.09;6128512;23;20029;-81
2023/08/31 05:23:20;;;;;;;11.63;8.18;;;;;;;11.72;100.00;100298.41;6133169;23;20473;-79
2023/08/31 05:26:08;;;;;;;14.63;8.85;;;;;;;11.81;100.00;100321.81;6125711;23;20105;-77
2023/08/31 05:35:32;;;;;;;11.50;7.72;;;;;;;12.08;100.00;100328.38;6061810;23;20041;-77
2023/08/31 05:38:00;;;;;;;10.10;8.00;;;;;;;12.06;100.00;100309.38;6130427;23;20022;-78
2023/08/31 05:40:45;;;;;;;14.50;7.80;;;;;;;12.10;100.00;100310.66;6128223;23;20026;-78
2023/08/31 05:46:38;;;;;;;12.60;7.65;;;;;;;12.38;100.00;100324.06;6095526;23;20023;-80
2023/08/31 05:49:38;;;;;;;13.20;7.43;;;;;;;12.51;100.00;100332.19;6130752;23;20408;-80
2023/08/31 05:52:43;;;;;;;;;;;;;;;;;;;;;
2023/08/31 05:55:37;;;;;;;15.52;7.68;;;;;;;12.80;100.00;100331.44;6129608;23;20014;-78
2023/08/31 05:58:04;;;;;;;13.63;7.10;;;;;;;12.85;100.00;100339.59;6123433;23;20362;-79
2023/08/31 06:00:33;;;;;;;12.75;7.88;;;;;;;12.86;100.00;100328.09;6124630;23;20030;-78
2023/08/31 06:06:46;;;;;;;16.27;6.97;;;;;;;14.05;100.00;100329.75;6161953;23;20033;-81
2023/08/31 06:13:05;;;;;;;10.35;5.35;;;;;;;15.60;94.26;100273.38;6150871;23;20030;-82
2023/08/31 06:16:05;;;;;;;12.80;5.55;;;;;;;16.35;90.63;100276.00;6160357;23;20080;-81
2023/08/31 06:18:52;;;;;;;12.18;5.57;;;;;;;17.02;86.75;100298.72;6162549;23;20072;-83
2023/08/31 06:37:55;;;;;;;;;;;;;;;;;;;;;
2023/08/31 06:43:57;;;;;;;16.15;5.55;;;;;;;19.28;76.66;100303.28;6031291;23;19921;-83
2023/08/31 06:46:38;;;;;;;16.83;4.97;;;;;;;19.30;74.93;100290.63;6041928;23;20027;-83
2023/08/31 06:49:36;;;;;;;12.88;4.63;;;;;;;19.23;74.45;100266.81;6173365;23;20041;-82
2023/08/31 06:52:08;;;;;;;16.48;5.80;;;;;;;19.41;74.07;100275.78;6171394;23;20037;-83
2023/08/31 06:54:37;;;;;;;30.90;5.78;;;;;;;19.39;74.24;100278.66;6169538;23;20029;-82
2023/08/31 06:57:11;;;;;;;14.32;4.32;;;;;;;19.66;73.81;100275.72;6168287;23;20025;-83
2023/08/31 07:00:15;;;;;;;11.63;4.38;;;;;;;19.34;74.26;100267.13;6174840;23;20458;-82
2023/08/31 07:02:50;;;;;;;15.23;4.57;;;;;;;19.21;75.10;100300.72;6148509;23;20056;-82
2023/08/31 07:05:25;;;;;;;8.77;3.90;;;;;;;18.71;75.28;100289.38;6171600;23;20022;-83
2023/08/31 07:09:10;;;;;;;6.80;4.03;;;;;;;17.84;78.40;100325.38;6170057;23;20312;-83
2023/08/31 07:11:40;;;;;;;14.10;4.30;;;;;;;18.32;78.99;100321.44;6169098;23;20030;-81
2023/08/31 07:14:07;;;;;;;6.20;3.88;;;;;;;19.33;75.63;100310.59;6172600;23;20025;-83
2023/08/31 07:16:41;;;;;;;8.50;3.70;;;;;;;18.96;75.88;100301.78;6170114;23;20033;-83
2023/08/31 07:19:35;;;;;;;6.60;3.60;;;;;;;19.20;75.18;100290.31;6173777;23;20027;-83
2023/08/31 07:22:08;;;;;;;6.40;4.03;;;;;;;20.01;73.06;100276.66;6172199;23;20021;-82
2023/08/31 07:24:36;;;;;;;;;;;;;;;20.30;72.12;100298.13;6173817;23;20037;-83
2023/08/31 07:27:22;;;;;;;7.38;3.92;;;;;;;20.75;70.50;100296.59;6172942;23;19917;-83
2023/08/31 07:29:49;;;;;;;6.40;3.70;;;;;;;19.95;71.75;100305.97;6173653;23;20021;-83
2023/08/31 07:32:22;;;;;;;8.07;3.70;;;;;;;20.11;71.90;100295.53;6173692;23;20017;-82
2023/08/31 07:35:04;;;;;;;10.57;4.53;;;;;;;18.94;74.29;100327.69;6172933;23;20022;-82
2023/08/31 07:37:35;;;;;;;7.65;3.88;;;;;;;18.49;76.78;100333.13;6172028;23;20021;-83
2023/08/31 07:40:02;;;;;;;9.68;4.10;;;;;;;18.90;75.75;100308.78;6167071;23;20018;-83
2023/08/31 07:42:32;;;;;;;11.77;4.15;;;;;;;19.49;74.35;100328.56;6173421;23;20022;-82
2023/08/31 07:49:30;;;;;;;9.27;4.07;;;;;;;20.10;71.56;100299.22;6127152;23;20096;-84
2023/08/31 07:59:03;;;;;;;11.73;3.70;;;;;;;18.20;75.86;100316.81;6052422;23;20014;-84
2023/08/31 08:01:58;;;;;;;6.63;3.88;;;;;;;19.31;74.90;100325.91;5942069;24;20035;-84
2023/08/31 08:08:31;;;;;;;8.68;4.03;;;;;;;20.90;70.64;100295.31;6158896;23;20085;-84
2023/08/31 08:11:42;;;;;;;7.25;4.03;;;;;;;21.65;68.26;100298.00;6173014;23;20043;-83
2023/08/31 08:53:15;;;;;;;5.53;3.05;;;;;;;21.97;65.94;100346.28;6093695;23;20030;-84
2023/08/31 08:58:56;;;;;;;8.05;3.25;;;;;;;21.88;64.97;100319.19;6114467;23;20017;-80
2023/08/31 09:01:26;;;;;;;13.57;4.65;;;;;;;21.85;64.45;100344.44;6158047;23;20021;-80
2023/08/31 09:04:02;;;;;;;6.35;3.25;;;;;;;21.42;65.90;100358.22;6157424;23;20104;-81
2023/08/31 09:06:54;;;;;;;7.22;3.08;;;;;;;21.46;66.13;100346.06;6158396;23;20037;-79
2023/08/31 09:09:44;;;;;;;7.13;3.85;;;;;;;21.46;66.93;100363.88;6158423;23;20028;-79
2023/08/31 09:12:26;;;;;;;7.90;3.53;;;;;;;21.73;66.93;100373.00;6153827;23;20053;-80
2023/08/31 09:15:13;;;;;;;5.85;3.40;;;;;;;21.67;66.10;100362.47;6161583;23;20086;-78
2023/08/31 09:17:55;;;;;;;6.78;3.40;;;;;;;21.52;67.05;100373.59;6161918;23;20025;-81
2023/08/31 09:20:36;;;;;;;;;;;;;;;;;;;;;
2023/08/31 09:23:15;;;;;;;8.18;4.07;;;;;;;21.66;66.00;100331.56;6159237;23;20277;-80
2023/08/31 09:25:54;;;;;;;7.28;3.85;;;;;;;21.97;65.66;100362.25;6161159;23;20269;-79
2023/08/31 09:28:27;;;;;;;9.27;3.60;;;;;;;21.59;66.25;100344.19;6163443;23;20049;-80
2023/08/31 09:31:10;;;;;;;8.07;4.03;;;;;;;20.80;68.46;100354.38;6162100;23;20025;-81
2023/08/31 09:33:53;;;;;;;4.93;3.22;;;;;;;21.22;68.18;100370.28;6159598;23;20056;-83
2023/08/31 09:36:42;;;;;;;8.43;3.80;;;;;;;21.21;67.31;100353.53;6163369;23;20025;-79
2023/08/31 09:39:22;;;;;;;8.10;3.70;;;;;;;21.47;67.29;100365.50;6156059;23;20045;-79
2023/08/31 09:42:10;;;;;;;10.70;3.40;;;;;;;21.58;66.85;100362.03;6159599;23;20029;-81
2023/08/31 09:44:51;;;;;;;10.77;3.50;;;;;;;21.86;66.39;100334.59;6159853;23;20402;-81
2023/08/31 09:47:32;;;;;;;11.18;3.75;;;;;;;21.86;66.95;100335.41;6158840;23;20068;-81
2023/08/31 09:50:03;;;;;;;8.43;4.00;;;;;;;21.95;66.38;100365.16;6158242;23;20166;-80
2023/08/31 09:52:30;;;;;;;11.57;3.88;;;;;;;20.98;66.45;100364.13;6159160;23;20022;-81
2023/08/31 09:54:59;;;;;;;14.77;4.00;;;;;;;21.43;66.91;100367.81;6158972;23;20484;-81
2023/08/31 09:57:26;;;;;;;6.32;3.90;;;;;;;21.61;65.89;100347.44;6159453;23;20060;-80
2023/08/31 09:59:53;;;;;;;6.60;3.75;;;;;;;21.79;66.55;100365.91;6165264;23;20025;-80
2023/08/31 10:02:20;;;;;;;6.00;3.90;;;;;;;21.46;66.60;100361.22;6167343;23;20026;-81
2023/08/31 10:04:48;;;;;;;9.15;3.90;;;;;;;21.52;65.48;100350.47;6160871;23;20033;-81
2023/08/31 10:07:15;;;;;;;11.05;4.18;;;;;;;22.07;67.24;100368.63;6159520;23;20029;-82
2023/08/31 10:09:44;;;;;;;7.68;3.85;;;;;;;22.54;65.48;100363.06;6159655;23;20351;-79
2023/08/31 10:12:12;;;;;;;7.18;4.03;;;;;;;22.54;64.89;100372.91;6159935;23;20048;-80
2023/08/31 10:14:39;;;;;;;6.80;3.42;;;;;;;21.64;65.88;100360.28;6160858;23;20032;-80
2023/08/31 10:17:06;;;;;;;8.55;3.80;;;;;;;21.77;65.29;100355.47;6161971;23;20060;-79
2023/08/31 10:19:33;;;;;;;7.45;4.20;;;;;;;22.30;65.11;100351.72;6161342;23;20033;-81
2023/08/31 10:22:01;;;;;;;7.75;3.80;;;;;;;22.15;64.82;100343.47;6159714;23;20052;-78
2023/08/31 10:24:57;;;;;;;6.60;3.42;;;;;;;22.15;65.41;100367.44;6159582;23;20081;-79
2023/08/31 10:27:25;;;;;;;9.65;3.65;;;;;;;22.25;64.54;100356.94;6158769;23;20049;-80
2023/08/31 10:29:52;;;;;;;9.23;3.75;;;;;;;21.46;65.15;100350.59;6159271;23;20169;-81
2023/08/31 10:32:19;;;;;;;11.32;3.63;;;;;;;20.93;66.38;100374.63;6160572;23;20135;-80
2023/08/31 10:35:05;;;;;;;9.65;3.80;;;;;;;20.61;67.99;100368.81;6159162;23;20056;-78
2023/08/31 10:37:32;;;;;;;12.38;4.00;;;;;;;20.45;68.79;100375.59;6160687;23;20101;-82
2023/08/31 10:40:08;;;;;;;5.32;3.60;;;;;;;20.58;67.92;100362.09;6161085;23;20045;-79
2023/08/31 10:42:44;;;;;;;6.13;3.78;;;;;;;21.58;65.90;100353.22;6159740;23;20025;-79
2023/08/31 10:45:11;;;;;;;6.95;3.63;;;;;;;22.16;64.82;100355.72;6158168;23;20033;-80
2023/08/31 10:47:38;;;;;;;7.78;3.67;;;;;;;22.40;63.69;100353.75;6161534;23;20029;-78
2023/08/31 10:50:17;;;;;;;7.93;3.47;;;;;;;23.20;63.03;100360.63;6161548;23;20076;-79
2023/08/31 10:52:45;;;;;;;10.05;3.47;;;;;;;22.42;62.20;100354.31;6159921;23;20022;-78
2023/08/31 10:55:15;;;;;;;9.70;4.28;;;;;;;21.91;64.27;100369.34;6157490;23;20124;-78
2023/08/31 10:57:43;;;;;;;23.63;4.32;;;;;;;21.41;64.24;100358.47;6159921;23;20100;-79
2023/08/31 11:00:11;;;;;;;10.40;3.58;;;;;;;21.28;66.56;100364.00;6160896;23;20028;-79
2023/08/31 11:02:39;;;;;;;8.95;4.40;;;;;;;21.00;67.17;100362.03;6165135;23;20021;-78
2023/08/31 11:05:10;;;;;;;8.52;4.03;;;;;;;20.55;67.64;100365.22;6167260;23;20021;-79
2023/08/31 11:07:38;;;;;;;28.35;6.30;;;;;;;19.99;67.58;100361.06;6169422;23;20032;-80
2023/08/31 11:10:23;;;;;;;6.05;3.67;;;;;;;20.00;68.00;100357.38;6162640;23;20166;-81
2023/08/31 11:12:53;;;;;;;9.20;4.03;;;;;;;20.51;67.63;100343.59;6162051;23;20057;-80
2023/08/31 11:15:22;;;;;;;7.95;4.28;;;;;;;20.92;66.46;100333.94;6162977;23;20052;-80
2023/08/31 11:17:51;;;;;;;9.50;4.18;;;;;;;21.43;64.06;100319.91;6162115;23;20022;-80
2023/08/31 11:20:19;;;;;;;10.73;4.30;;;;;;;21.72;64.74;100318.13;6162468;23;20421;-79
2023/08/31 11:22:46;;;;;;;16.60;4.80;;;;;;;22.01;65.52;100340.25;6163415;23;20032;-81
2023/08/31 11:25:14;;;;;;;18.17;5.25;;;;;;;22.05;62.69;100306.78;6164855;23;20025;-79
2023/08/31 11:27:41;;;;;;;8.07;3.95;;;;;;;21.60;62.81;100313.88;6165914;23;20029;-80
2023/08/31 11:30:20;;;;;;;6.63;3.70;;;;;;;21.15;63.31;100317.16;6177525;23;20089;-80
2023/08/31 11:32:47;;;;;;;8.27;3.50;;;;;;;21.82;62.81;100317.47;6177746;23;20025;-78
2023/08/31 11:35:16;;;;;;;8.25;3.70;;;;;;;21.49;65.12;100324.31;6178540;23;20026;-79
2023/08/31 11:37:43;;;;;;;7.45;3.28;;;;;;;21.23;62.90;100316.03;6176770;23;20032;-81
2023/08/31 11:40:10;;;;;;;7.63;3.50;;;;;;;21.31;63.64;100327.09;6167508;23;20025;-80
2023/08/31 11:42:37;;;;;;;9.02;4.30;;;;;;;21.61;64.51;100326.94;6161430;23;20025;-80
2023/08/31 11:45:06;;;;;;;9.55;4.00;;;;;;;21.80;64.51;100325.72;6161752;23;20053;-81
2023/08/31 11:47:35;;;;;;;8.20;3.45;;;;;;;21.93;65.26;100342.47;6161576;23;20064;-79
2023/08/31 11:50:04;;;;;;;8.90;3.80;;;;;;;22.14;64.17;100321.31;6161579;23;20026;-79
2023/08/31 11:52:31;;;;;;;8.65;3.88;;;;;;;22.18;63.85;100314.47;6158648;23;20278;-79
2023/08/31 11:54:58;;;;;;;8.95;3.53;;;;;;;22.30;64.56;100324.25;6158433;23;20033;-78
2023/08/31 11:57:28;;;;;;;4.55;3.50;;;;;;;22.22;64.83;100329.97;6158984;23;20163;-81
2023/08/31 11:59:56;;;;;;;7.25;4.05;;;;;;;22.41;64.45;100318.03;6160816;23;20028;-81
2023/08/31 12:02:23;;;;;;;8.00;3.60;;;;;;;22.49;63.21;100312.31;6161438;23;20101;-78
2023/08/31 12:04:51;;;;;;;10.38;3.75;;;;;;;22.63;63.50;100313.63;6162146;23;20354;-81
2023/08/31 12:07:21;;;;;;;8.38;4.10;;;;;;;22.86;63.54;100326.00;6160868;23;20025;-80
2023/08/31 12:09:49;;;;;;;8.02;3.72;;;;;;;23.32;63.13;100319.41;6160444;23;20053;-81
2023/08/31 12:12:16;;;;;;;11.57;3.85;;;;;;;23.53;62.28;100327.69;6159453;23;20056;-77
2023/08/31 12:14:44;;;;;;;10.63;4.20;;;;;;;23.68;62.05;100317.22;6161108;23;20025;-80
2023/08/31 12:17:11;;;;;;;8.32;3.83;;;;;;;23.66;62.13;100327.34;6161275;23;20053;-80
2023/08/31 12:19:39;;;;;;;8.52;3.70;;;;;;;22.77;62.76;100320.22;6160275;23;20017;-79
2023/08/31 12:22:12;;;;;;;12.45;4.15;;;;;;;22.34;65.24;100352.84;6159818;23;20021;-82
2023/08/31 12:24:40;;;;;;;12.68;4.57;;;;;;;20.95;68.21;100359.25;6159998;23;20021;-81
2023/08/31 12:27:06;;;;;;;9.57;4.32;;;;;;;20.14;77.70;100408.47;6159903;23;20397;-80
2023/08/31 12:29:33;;;;;;;5.50;3.70;;;;;;;19.40;78.20;100396.22;6161190;23;20021;-82
2023/08/31 12:32:00;;;;;;;8.52;4.00;;;;;;;19.18;79.48;100386.03;6160783;23;20057;-79
2023/08/31 12:34:26;;;;;;;7.75;3.97;;;;;;;19.33;79.36;100377.72;6161291;23;20310;-79
2023/08/31 12:36:53;;;;;;;8.70;3.92;;;;;;;19.41;78.54;100369.47;6160083;23;20022;-80
2023/08/31 12:39:21;;;;;;;4.88;3.15;;;;;;;19.62;76.84;100351.53;6159237;23;20025;-79
2023/08/31 12:41:48;;;;;;;4.63;3.45;;;;;;;19.64;76.35;100342.31;6160644;23;20030;-80
2023/08/31 12:44:15;;;;;;;8.00;3.70;;;;;;;19.73;76.01;100330.34;6159701;23;20031;-79
2023/08/31 12:46:42;;;;;;;6.45;3.60;;;;;;;19.65;75.71;100337.81;6160698;23;20022;-80
2023/08/31 12:49:08;;;;;;;7.85;3.72;;;;;;;19.67;76.32;100327.78;6159250;23;20089;-80
2023/08/31 12:51:35;;;;;;;9.88;4.13;;;;;;;19.91;75.60;100316.22;6159982;23;20406;-80
2023/08/31 12:54:01;;;;;;;7.70;3.75;;;;;;;20.51;74.34;100316.19;6160573;23;20025;-81
2023/08/31 12:56:30;;;;;;;6.80;3.85;;;;;;;20.69;72.46;100320.63;6159629;23;20501;-80
2023/08/31 12:58:57;;;;;;;10.23;3.72;;;;;;;20.80;71.71;100309.97;6158948;23;20080;-80
2023/08/31 13:01:25;;;;;;;10.70;4.07;;;;;;;20.38;70.65;100303.13;6159680;23;20490;-80
2023/08/31 13:03:52;;;;;;;7.38;3.90;;;;;;;20.84;70.48;100307.66;6161607;23;20077;-80
2023/08/31 13:06:19;;;;;;;7.97;4.07;;;;;;;20.81;69.78;100306.28;6164184;23;20041;-80
2023/08/31 13:08:46;;;;;;;6.63;3.90;;;;;;;20.84;70.36;100313.81;6162764;23;20020;-78
2023/08/31 13:11:13;;;;;;;5.35;3.80;;;;;;;20.67;71.05;100318.19;6162087;23;20017;-80
2023/08/31 13:13:42;;;;;;;8.98;4.07;;;;;;;20.93;71.37;100316.13;6162407;23;20022;-79
2023/08/31 13:16:09;;;;;;;7.25;4.20;;;;;;;21.34;69.56;100302.69;6161223;23;20076;-82
2023/08/31 13:18:35;;;;;;;8.57;4.07;;;;;;;21.46;69.32;100302.66;6160601;23;20073;-78
2023/08/31 13:21:03;;;;;;;7.63;4.20;;;;;;;21.10;69.93;100317.03;6159255;23;20029;-80
2023/08/31 13:23:30;;;;;;;7.45;4.05;;;;;;;21.20;70.94;100325.25;6158274;23;20447;-79
2023/08/31 13:25:57;;;;;;;8.07;3.83;;;;;;;21.44;70.53;100310.06;6159672;23;20048;-78
2023/08/31 13:28:24;;;;;;;8.63;4.07;;;;;;;21.55;68.44;100301.25;6160410;23;20037;-79
2023/08/31 13:30:57;;;;;;;10.02;3.90;;;;;;;21.72;67.72;100286.16;6158564;23;20026;-79
2023/08/31 13:33:23;;;;;;;8.10;4.20;;;;;;;21.65;66.87;100303.31;6159269;23;20022;-80
2023/08/31 13:35:50;;;;;;;7.00;3.75;;;;;;;21.26;67.71;100305.72;6160052;23;20041;-80
2023/08/31 13:38:17;;;;;;;8.10;3.97;;;;;;;21.06;68.27;100315.88;6159747;23;20025;-78
2023/08/31 13:40:44;;;;;;;8.75;4.22;;;;;;;20.71;67.12;100300.75;6159883;23;20017;-80
2023/08/31 13:43:11;;;;;;;7.82;4.07;;;;;;;20.56;68.89;100318.19;6158583;23;20017;-80
2023/08/31 13:45:38;;;;;;;10.98;4.32;;;;;;;20.49;69.13;100318.28;6158224;23;20501;-80